createdAt,value
2023-02-11T00:01:09.449Z,27.70
2023-02-11T00:03:38.825Z,34.10
2023-02-11T00:06:12.063Z,33.75
2023-02-11T00:08:40.471Z,30.00
2023-02-11T00:11:08.744Z,31.38
2023-02-11T00:13:36.750Z,36.13
2023-02-11T00:16:08.304Z,28.45
2023-02-11T00:18:36.448Z,32.05
2023-02-11T00:21:08.812Z,31.00
2023-02-11T00:23:39.022Z,24.15
2023-02-11T00:26:14.239Z,35.42
2023-02-11T00:28:44.060Z,32.42
2023-02-11T00:31:12.889Z,35.35
2023-02-11T00:33:41.101Z,27.42
2023-02-11T00:36:12.871Z,33.63
2023-02-11T00:38:44.332Z,32.33
2023-02-11T00:41:13.095Z,29.45
2023-02-11T00:43:41.895Z,32.28
2023-02-11T00:46:10.761Z,32.03
2023-02-11T00:48:38.979Z,30.65
2023-02-11T00:51:07.296Z,31.27
2023-02-11T00:53:35.512Z,31.63
2023-02-11T00:56:05.794Z,30.50
2023-02-11T00:58:34.777Z,29.58
2023-02-11T01:01:03.155Z,26.95
2023-02-11T01:03:31.357Z,31.15
2023-02-11T01:05:59.487Z,31.67
2023-02-11T01:08:27.965Z,27.70
2023-02-11T01:10:58.057Z,30.23
2023-02-11T01:13:28.776Z,31.75
2023-02-11T01:15:57.572Z,29.55
2023-02-11T01:18:26.674Z,30.90
2023-02-11T01:20:55.529Z,28.05
2023-02-11T01:23:24.654Z,33.17
2023-02-11T01:25:53.318Z,27.88
2023-02-11T01:28:23.724Z,30.58
2023-02-11T01:30:53.719Z,28.45
2023-02-11T01:33:22.054Z,30.98
2023-02-11T01:35:51.067Z,27.88
2023-02-11T01:38:20.999Z,31.77
2023-02-11T01:40:50.739Z,32.97
2023-02-11T01:43:19.060Z,30.23
2023-02-11T01:46:21.239Z,35.63
2023-02-11T01:48:54.100Z,30.50
2023-02-11T01:51:25.137Z,23.50
2023-02-11T01:54:11.739Z,27.98
2023-02-11T01:57:02.490Z,27.40
2023-02-11T01:59:36.036Z,35.50
2023-02-11T02:02:11.965Z,28.75
2023-02-11T02:04:45.528Z,25.73
2023-02-11T02:07:18.636Z,33.35
2023-02-11T02:09:53.914Z,28.38
2023-02-11T02:12:22.023Z,28.75
2023-02-11T02:14:50.102Z,31.70
2023-02-11T02:17:27.441Z,29.67
2023-02-11T02:20:25.332Z,32.05
2023-02-11T02:23:25.017Z,30.30
2023-02-11T02:26:29.284Z,25.55
2023-02-11T02:29:32.337Z,28.00
2023-02-11T02:32:28.804Z,33.28
2023-02-11T02:35:05.653Z,29.27
2023-02-11T02:37:39.019Z,31.20
2023-02-11T02:40:12.834Z,23.88
2023-02-11T02:42:42.466Z,33.67
2023-02-11T02:45:13.008Z,28.27
2023-02-11T02:47:42.393Z,37.42
2023-02-11T02:50:11.641Z,31.08
2023-02-11T02:52:47.571Z,31.00
2023-02-11T02:55:37.854Z,31.45
2023-02-11T02:58:40.773Z,28.50
2023-02-11T03:01:19.920Z,35.88
2023-02-11T03:04:01.078Z,29.92
2023-02-11T03:06:34.428Z,31.40
2023-02-11T03:09:11.145Z,28.60
2023-02-11T03:11:40.230Z,33.78
2023-02-11T03:14:14.229Z,30.77
2023-02-11T03:16:44.640Z,32.20
2023-02-11T03:19:18.051Z,31.38
2023-02-11T03:21:47.776Z,31.83
2023-02-11T03:24:19.621Z,34.08
2023-02-11T03:26:50.830Z,29.17
2023-02-11T03:29:29.002Z,31.60
2023-02-11T03:32:02.630Z,32.10
2023-02-11T03:34:37.457Z,30.27
2023-02-11T03:37:10.925Z,35.10
2023-02-11T03:39:41.892Z,28.63
2023-02-11T03:42:12.747Z,35.45
2023-02-11T03:44:43.151Z,30.48
2023-02-11T03:47:16.537Z,28.60
2023-02-11T03:49:48.915Z,36.72
2023-02-11T03:52:19.309Z,33.45
2023-02-11T03:54:50.098Z,31.98
2023-02-11T03:57:18.153Z,35.80
2023-02-11T03:59:54.947Z,36.25
2023-02-11T04:02:24.493Z,35.85
2023-02-11T04:04:54.016Z,34.50
2023-02-11T04:07:22.123Z,32.38
2023-02-11T04:09:50.201Z,35.75
2023-02-11T04:12:18.419Z,33.33
2023-02-11T04:14:46.509Z,37.47
2023-02-11T04:17:14.928Z,35.92
2023-02-11T04:19:42.993Z,27.73
2023-02-11T04:22:13.343Z,40.28
2023-02-11T04:24:41.490Z,32.40
2023-02-11T04:27:09.660Z,33.13
2023-02-11T04:29:37.867Z,35.38
2023-02-11T04:32:06.193Z,35.92
2023-02-11T04:34:34.377Z,33.42
2023-02-11T04:37:02.387Z,34.72
2023-02-11T04:39:31.843Z,28.52
2023-02-11T04:41:59.907Z,29.80
2023-02-11T04:44:27.939Z,36.83
2023-02-11T04:46:56.015Z,31.92
2023-02-11T04:49:24.257Z,36.58
2023-02-11T04:51:52.335Z,37.30
2023-02-11T04:54:20.341Z,32.15
2023-02-11T04:56:51.189Z,34.15
2023-02-11T04:59:19.287Z,37.45
2023-02-11T05:01:47.346Z,34.28
2023-02-11T05:04:15.448Z,42.10
2023-02-11T05:06:43.618Z,34.78
2023-02-11T05:09:12.348Z,34.78
2023-02-11T05:11:40.764Z,31.23
2023-02-11T05:14:10.194Z,32.70
2023-02-11T05:16:38.256Z,30.88
2023-02-11T05:19:06.342Z,39.05
2023-02-11T05:21:34.912Z,30.35
2023-02-11T05:24:03.005Z,32.78
2023-02-11T05:26:31.037Z,35.22
2023-02-11T05:28:59.058Z,33.60
2023-02-11T05:31:28.722Z,29.45
2023-02-11T05:33:56.833Z,35.92
2023-02-11T05:36:24.891Z,28.52
2023-02-11T05:38:52.918Z,32.50
2023-02-11T05:41:20.933Z,32.63
2023-02-11T05:43:49.918Z,38.22
2023-02-11T05:46:18.908Z,36.08
2023-02-11T05:48:48.505Z,37.53
2023-02-11T05:51:16.529Z,32.60
2023-02-11T05:53:44.639Z,32.70
2023-02-11T05:56:14.555Z,33.45
2023-02-11T05:58:42.628Z,32.92
2023-02-11T06:01:10.748Z,31.58
2023-02-11T06:03:38.983Z,37.42
2023-02-11T06:06:11.496Z,32.03
2023-02-11T06:08:40.063Z,33.13
2023-02-11T06:11:08.272Z,34.90
2023-02-11T06:13:36.616Z,35.03
2023-02-11T06:16:05.019Z,36.08
2023-02-11T06:18:33.585Z,34.42
2023-02-11T06:21:02.215Z,34.05
2023-02-11T06:23:31.644Z,36.13
2023-02-11T06:26:03.585Z,34.03
2023-02-11T06:28:32.399Z,34.63
2023-02-11T06:31:06.415Z,35.88
2023-02-11T06:33:35.121Z,30.98
2023-02-11T06:36:03.450Z,37.47
2023-02-11T06:38:32.916Z,34.55
2023-02-11T06:41:00.941Z,33.05
2023-02-11T06:43:28.993Z,33.72
2023-02-11T06:45:57.328Z,37.83
2023-02-11T06:48:25.380Z,35.70
2023-02-11T06:50:53.377Z,31.58
2023-02-11T06:53:21.573Z,30.02
2023-02-11T06:55:51.209Z,32.67
2023-02-11T06:58:19.409Z,35.53
2023-02-11T07:00:47.466Z,29.50
2023-02-11T07:03:15.518Z,31.58
2023-02-11T07:05:44.023Z,30.00
2023-02-11T07:08:12.080Z,33.85
2023-02-11T07:10:40.255Z,32.53
2023-02-11T07:13:09.666Z,35.10
2023-02-11T07:15:38.495Z,29.50
2023-02-11T07:18:06.608Z,33.50
2023-02-11T07:20:34.708Z,30.95
2023-02-11T07:23:02.766Z,34.35
2023-02-11T07:25:30.810Z,29.90
2023-02-11T07:27:58.883Z,30.75
2023-02-11T07:30:28.576Z,31.63
2023-02-11T07:32:57.833Z,37.47
2023-02-11T07:35:25.921Z,32.28
2023-02-11T07:37:53.989Z,34.00
2023-02-11T07:40:22.209Z,30.00
2023-02-11T07:42:50.257Z,32.90
2023-02-11T07:45:18.483Z,30.48
2023-02-11T07:47:47.888Z,33.05
2023-02-11T07:50:16.890Z,32.60
2023-02-11T07:52:44.944Z,32.67
2023-02-11T07:55:13.059Z,28.35
2023-02-11T07:57:41.324Z,32.30
2023-02-11T08:00:10.421Z,29.27
2023-02-11T08:02:41.401Z,30.90
2023-02-11T08:05:11.126Z,37.35
2023-02-11T08:07:39.131Z,37.83
2023-02-11T08:10:07.666Z,30.77
2023-02-11T08:12:35.695Z,31.85
2023-02-11T08:15:03.776Z,37.83
2023-02-11T08:17:31.859Z,34.38
2023-02-11T08:19:59.878Z,36.03
2023-02-11T08:22:29.295Z,31.08
2023-02-11T08:24:58.445Z,35.08
2023-02-11T08:27:26.781Z,35.90
2023-02-11T08:29:54.831Z,29.38
2023-02-11T08:32:25.561Z,36.72
2023-02-11T08:34:53.967Z,31.55
2023-02-11T08:37:22.860Z,32.75
2023-02-11T08:39:52.330Z,33.92
2023-02-11T08:42:20.395Z,36.13
2023-02-11T08:44:48.509Z,36.00
2023-02-11T08:47:16.554Z,36.83
2023-02-11T08:49:44.582Z,33.30
2023-02-11T08:52:12.932Z,32.15
2023-02-11T08:54:40.981Z,34.75
2023-02-11T08:57:10.392Z,35.35
2023-02-11T08:59:40.070Z,32.90
2023-02-11T09:02:11.773Z,34.30
2023-02-11T09:04:39.955Z,35.05
2023-02-11T09:07:08.260Z,34.10
2023-02-11T09:09:36.831Z,27.52
2023-02-11T09:12:05.310Z,31.67
2023-02-11T09:14:34.760Z,35.60
2023-02-11T09:17:02.921Z,33.42
2023-02-11T09:19:31.038Z,29.77
2023-02-11T09:21:59.098Z,31.73
2023-02-11T09:24:27.228Z,30.40
2023-02-11T09:26:55.251Z,29.95
2023-02-11T09:29:23.357Z,35.08
2023-02-11T09:31:52.881Z,35.72
2023-02-11T09:34:21.084Z,30.35
2023-02-11T09:36:49.310Z,35.95
2023-02-11T09:39:19.696Z,29.58
2023-02-11T09:42:10.015Z,29.58
2023-02-11T09:44:39.493Z,29.98
2023-02-11T09:47:23.796Z,33.10
2023-02-11T09:49:54.990Z,29.98
2023-02-11T09:52:32.037Z,31.58
2023-02-11T09:55:01.943Z,30.70
2023-02-11T09:57:35.096Z,29.13
2023-02-11T10:00:16.869Z,33.80
2023-02-11T10:03:06.044Z,28.35
2023-02-11T10:05:51.024Z,29.98
2023-02-11T10:08:27.350Z,30.38
2023-02-11T10:11:02.545Z,29.45
2023-02-11T10:13:59.845Z,27.23
2023-02-11T10:16:46.245Z,32.47
2023-02-11T10:19:35.553Z,34.78
2023-02-11T10:22:10.928Z,32.78
2023-02-11T10:24:40.331Z,28.95
2023-02-11T10:27:17.487Z,27.00
2023-02-11T10:29:50.764Z,29.08
2023-02-11T10:32:30.713Z,27.55
2023-02-11T10:35:03.596Z,28.48
2023-02-11T10:37:32.197Z,32.35
2023-02-11T10:40:00.178Z,30.50
2023-02-11T10:42:29.337Z,26.02
2023-02-11T10:45:01.742Z,29.88
2023-02-11T10:47:37.076Z,29.85
2023-02-11T10:50:21.704Z,29.88
2023-02-11T10:52:49.949Z,32.42
2023-02-11T10:55:21.774Z,27.98
2023-02-11T10:57:56.674Z,37.53
2023-02-11T11:00:34.133Z,30.33
2023-02-11T11:03:03.231Z,30.13
2023-02-11T11:05:35.424Z,29.67
2023-02-11T11:08:06.635Z,28.80
2023-02-11T11:10:43.497Z,25.58
2023-02-11T11:13:33.488Z,27.05
2023-02-11T11:16:18.251Z,24.67
2023-02-11T11:18:47.687Z,29.83
2023-02-11T11:21:21.318Z,23.38
2023-02-11T11:23:56.798Z,33.55
2023-02-11T11:26:26.776Z,31.52
2023-02-11T11:29:01.425Z,28.70
2023-02-11T11:31:32.959Z,31.80
2023-02-11T11:34:04.223Z,23.38
2023-02-11T11:36:37.185Z,20.65
2023-02-11T11:39:20.053Z,26.00
2023-02-11T11:41:53.769Z,24.10
2023-02-11T11:44:32.116Z,25.20
2023-02-11T11:47:26.541Z,24.17
2023-02-11T11:50:12.805Z,24.55
2023-02-11T11:52:49.359Z,27.63
2023-02-11T11:55:21.784Z,26.55
2023-02-11T11:57:50.350Z,18.85
2023-02-11T12:00:21.020Z,22.38
2023-02-11T12:03:24.299Z,23.42
2023-02-11T12:06:07.700Z,21.35
2023-02-11T12:08:49.780Z,24.08
2023-02-11T12:11:26.953Z,26.08
2023-02-11T12:14:07.497Z,25.15
2023-02-11T12:16:45.343Z,18.25
2023-02-11T12:19:45.036Z,20.90
2023-02-11T12:22:20.064Z,21.67
2023-02-11T12:25:04.894Z,27.05
2023-02-11T12:27:47.175Z,18.63
2023-02-11T12:30:28.053Z,19.40
2023-02-11T12:33:05.281Z,24.40
2023-02-11T12:35:44.841Z,20.88
2023-02-11T12:38:30.964Z,26.58
2023-02-11T12:41:14.322Z,22.88
2023-02-11T12:43:43.957Z,23.15
2023-02-11T12:46:39.116Z,25.38
2023-02-11T12:49:42.473Z,23.75
2023-02-11T12:52:24.633Z,23.13
2023-02-11T12:54:57.642Z,20.50
2023-02-11T12:57:29.396Z,25.65
2023-02-11T13:00:04.320Z,24.73
2023-02-11T13:02:43.463Z,25.20
2023-02-11T13:05:24.298Z,23.70
2023-02-11T13:07:56.482Z,30.52
2023-02-11T13:10:31.193Z,21.60
2023-02-11T13:13:18.934Z,21.55
2023-02-11T13:15:52.156Z,17.83
2023-02-11T13:18:33.643Z,22.30
2023-02-11T13:21:20.650Z,25.15
2023-02-11T13:23:56.777Z,30.30
2023-02-11T13:26:29.795Z,23.17
2023-02-11T13:29:17.047Z,23.77
2023-02-11T13:31:53.775Z,28.15
2023-02-11T13:34:26.593Z,20.73
2023-02-11T13:36:59.006Z,22.55
2023-02-11T13:39:27.084Z,26.40
2023-02-11T13:42:04.996Z,27.80
2023-02-11T13:44:35.658Z,21.23
2023-02-11T13:47:06.038Z,22.10
2023-02-11T13:49:40.435Z,28.05
2023-02-11T13:52:23.471Z,23.75
2023-02-11T13:54:53.948Z,24.65
2023-02-11T13:57:36.722Z,31.23
2023-02-11T14:00:48.963Z,28.70
2023-02-11T14:03:47.087Z,19.77
2023-02-11T14:06:35.418Z,19.27
2023-02-11T14:09:28.564Z,24.05
2023-02-11T14:12:21.676Z,27.17
2023-02-11T14:15:03.777Z,25.02
2023-02-11T14:17:35.531Z,26.80
2023-02-11T14:20:24.796Z,27.30
2023-02-11T14:22:54.554Z,25.50
2023-02-11T14:25:25.125Z,22.30
2023-02-11T14:27:57.246Z,29.00
2023-02-11T14:30:35.549Z,21.38
2023-02-11T14:33:43.070Z,23.75
2023-02-11T14:36:22.036Z,24.13
2023-02-11T14:39:02.809Z,26.55
2023-02-11T14:41:33.108Z,20.52
2023-02-11T14:44:04.901Z,24.52
2023-02-11T14:46:34.423Z,21.55
2023-02-11T14:49:06.301Z,18.85
2023-02-11T14:51:37.263Z,23.33
2023-02-11T14:54:15.263Z,28.17
2023-02-11T14:56:44.470Z,24.05
2023-02-11T14:59:19.047Z,29.88
2023-02-11T15:01:51.097Z,24.98
2023-02-11T15:04:29.331Z,20.58
2023-02-11T15:06:59.510Z,22.60
2023-02-11T15:09:35.035Z,28.48
2023-02-11T15:12:03.193Z,22.33
2023-02-11T15:14:33.704Z,25.70
2023-02-11T15:17:04.806Z,26.15
2023-02-11T15:19:37.152Z,27.60
2023-02-11T15:22:07.648Z,25.83
2023-02-11T15:24:36.488Z,28.10
2023-02-11T15:27:12.891Z,24.10
2023-02-11T15:29:43.887Z,24.75
2023-02-11T15:32:17.863Z,34.55
2023-02-11T15:34:48.936Z,27.80
2023-02-11T15:37:21.987Z,24.92
2023-02-11T15:39:50.593Z,25.48
2023-02-11T15:42:27.107Z,30.83
2023-02-11T15:45:13.026Z,26.58
2023-02-11T15:47:43.612Z,34.63
2023-02-11T15:50:23.640Z,22.33
2023-02-11T15:52:53.106Z,29.98
2023-02-11T15:55:22.179Z,28.27
2023-02-11T15:57:54.186Z,26.73
2023-02-11T16:00:25.675Z,24.25
2023-02-11T16:02:54.605Z,23.55
2023-02-11T16:05:31.028Z,25.17
2023-02-11T16:07:59.670Z,29.48
2023-02-11T16:10:30.143Z,33.83
2023-02-11T16:13:05.456Z,22.23
2023-02-11T16:15:46.157Z,26.90
2023-02-11T16:18:28.471Z,23.02
2023-02-11T16:21:04.883Z,22.73
2023-02-11T16:23:35.657Z,31.50
2023-02-11T16:26:08.537Z,26.35
2023-02-11T16:28:37.984Z,24.52
2023-02-11T16:31:06.879Z,28.65
2023-02-11T16:33:35.133Z,30.52
2023-02-11T16:36:11.521Z,23.88
2023-02-11T16:38:39.686Z,31.15
2023-02-11T16:41:08.830Z,26.08
2023-02-11T16:43:37.021Z,22.77
2023-02-11T16:46:05.743Z,25.63
2023-02-11T16:48:35.018Z,25.23
2023-02-11T16:51:04.643Z,27.60
2023-02-11T16:53:32.664Z,25.98
2023-02-11T16:56:00.748Z,26.38
2023-02-11T16:58:28.740Z,21.08
2023-02-11T17:00:57.163Z,23.52
2023-02-11T17:03:30.076Z,20.00
2023-02-11T17:05:58.567Z,24.33
2023-02-11T17:08:28.151Z,28.80
2023-02-11T17:10:56.156Z,22.48
2023-02-11T17:13:24.160Z,21.88
2023-02-11T17:15:52.523Z,25.85
2023-02-11T17:18:21.001Z,25.30
2023-02-11T17:20:49.579Z,19.88
2023-02-11T17:23:17.616Z,27.15
2023-02-11T17:25:47.044Z,24.48
2023-02-11T17:28:15.076Z,28.50
2023-02-11T17:30:44.174Z,20.83
2023-02-11T17:33:12.257Z,21.52
2023-02-11T17:35:41.584Z,27.17
2023-02-11T17:38:09.616Z,26.80
2023-02-11T17:40:37.960Z,26.27
2023-02-11T17:43:07.432Z,26.67
2023-02-11T17:45:35.999Z,26.52
2023-02-11T17:48:04.309Z,27.42
2023-02-11T17:50:32.336Z,25.05
2023-02-11T17:53:00.816Z,20.45
2023-02-11T17:55:28.869Z,31.27
2023-02-11T17:57:56.945Z,26.95
2023-02-11T18:00:28.265Z,24.48
2023-02-11T18:02:57.757Z,21.55
2023-02-11T18:05:27.381Z,20.20
2023-02-11T18:07:55.881Z,21.90
2023-02-11T18:10:24.109Z,20.90
2023-02-11T18:12:52.525Z,29.23
2023-02-11T18:15:20.532Z,25.13
2023-02-11T18:17:50.009Z,24.05
2023-02-11T18:20:18.436Z,21.65
2023-02-11T18:22:46.809Z,23.60
2023-02-11T18:25:16.359Z,22.35
2023-02-11T18:27:44.415Z,30.83
2023-02-11T18:30:16.655Z,22.95
2023-02-11T18:32:44.963Z,25.63
2023-02-11T18:35:16.101Z,26.92
2023-02-11T18:37:44.542Z,30.77
2023-02-11T18:40:13.518Z,23.42
2023-02-11T18:42:41.588Z,25.25
2023-02-11T18:45:12.896Z,24.65
2023-02-11T18:47:41.067Z,27.38
2023-02-11T18:50:13.853Z,22.23
2023-02-11T18:52:43.787Z,21.65
2023-02-11T18:55:11.893Z,21.77
2023-02-11T18:57:39.953Z,22.27
2023-02-11T19:00:10.173Z,24.25
2023-02-11T19:02:38.286Z,26.52
2023-02-11T19:05:06.946Z,27.98
2023-02-11T19:07:34.998Z,21.73
2023-02-11T19:10:05.171Z,22.83
2023-02-11T19:12:33.917Z,23.67
2023-02-11T19:15:01.943Z,27.35
2023-02-11T19:17:30.144Z,29.13
2023-02-11T19:19:58.152Z,26.13
2023-02-11T19:22:26.182Z,28.15
2023-02-11T19:24:54.272Z,22.17
2023-02-11T19:27:23.693Z,24.13
2023-02-11T19:29:51.744Z,27.88
2023-02-11T19:32:19.826Z,21.73
2023-02-11T19:34:47.904Z,19.80
2023-02-11T19:37:16.196Z,24.05
2023-02-11T19:39:44.521Z,21.17
2023-02-11T19:42:13.363Z,22.90
2023-02-11T19:44:42.853Z,25.98
2023-02-11T19:47:12.665Z,27.38
2023-02-11T19:49:40.694Z,31.55
2023-02-11T19:52:08.760Z,32.30
2023-02-11T19:54:36.793Z,24.88
2023-02-11T19:57:04.918Z,26.67
2023-02-11T19:59:32.944Z,27.67
2023-02-11T20:02:02.525Z,21.30
2023-02-11T20:04:32.160Z,26.27
2023-02-11T20:07:00.368Z,22.80
2023-02-11T20:09:29.070Z,21.05
2023-02-11T20:11:57.104Z,28.75
2023-02-11T20:14:27.776Z,22.73
2023-02-11T20:16:56.047Z,26.27
2023-02-11T20:19:25.627Z,24.58
2023-02-11T20:21:56.018Z,22.55
2023-02-11T20:24:25.628Z,25.95
2023-02-11T20:26:55.779Z,26.38
2023-02-11T20:29:25.305Z,23.80
2023-02-11T20:31:54.884Z,26.83
2023-02-11T20:34:23.060Z,23.10
2023-02-11T20:36:52.862Z,26.08
2023-02-11T20:39:22.844Z,23.88
2023-02-11T20:41:51.844Z,24.00
2023-02-11T20:44:21.774Z,32.78
2023-02-11T20:46:50.754Z,25.08
2023-02-11T20:49:20.561Z,31.80
2023-02-11T20:51:48.806Z,29.80
2023-02-11T20:54:20.548Z,26.80
2023-02-11T20:56:50.697Z,23.25
2023-02-11T20:59:19.619Z,23.95
2023-02-11T21:01:50.198Z,25.77
2023-02-11T21:04:21.217Z,29.30
2023-02-11T21:06:52.216Z,33.35
2023-02-11T21:09:23.888Z,32.88
2023-02-11T21:11:52.900Z,27.38
2023-02-11T21:14:22.765Z,32.60
2023-02-11T21:16:51.516Z,33.85
2023-02-11T21:19:20.417Z,29.15
2023-02-11T21:21:48.618Z,34.80
2023-02-11T21:24:16.950Z,36.33
2023-02-11T21:26:46.371Z,34.05
2023-02-11T21:29:14.463Z,37.45
2023-02-11T21:31:42.942Z,43.85
2023-02-11T21:34:11.715Z,38.90
2023-02-11T21:36:39.799Z,36.80
2023-02-11T21:39:08.934Z,40.90
2023-02-11T21:41:37.000Z,39.28
2023-02-11T21:44:06.526Z,40.92
2023-02-11T21:46:34.739Z,33.40
2023-02-11T21:49:02.845Z,31.75
2023-02-11T21:51:30.896Z,31.25
2023-02-11T21:54:01.191Z,35.63
2023-02-11T21:56:30.710Z,32.42
2023-02-11T21:59:00.546Z,35.35
2023-02-11T22:01:32.418Z,41.42
2023-02-11T22:04:01.004Z,39.30
2023-02-11T22:06:31.732Z,37.55
2023-02-11T22:09:00.502Z,37.83
2023-02-11T22:11:28.540Z,38.65
2023-02-11T22:13:57.838Z,35.08
2023-02-11T22:16:26.971Z,42.33
2023-02-11T22:18:58.490Z,31.40
2023-02-11T22:21:28.063Z,38.00
2023-02-11T22:23:57.365Z,33.80
2023-02-11T22:26:27.089Z,37.65
2023-02-11T22:28:55.941Z,30.80
2023-02-11T22:31:25.919Z,40.10
2023-02-11T22:33:54.169Z,34.97
2023-02-11T22:36:25.367Z,41.67
2023-02-11T22:38:54.021Z,26.63
2023-02-11T22:41:23.364Z,32.45
2023-02-11T22:43:51.605Z,37.42
2023-02-11T22:46:21.179Z,37.65
2023-02-11T22:48:49.806Z,34.63
2023-02-11T22:51:20.543Z,36.17
2023-02-11T22:53:55.858Z,37.17
2023-02-11T22:56:25.113Z,39.00
2023-02-11T22:58:54.551Z,39.45
2023-02-11T23:01:22.568Z,40.78
2023-02-11T23:03:50.646Z,44.70
2023-02-11T23:06:18.800Z,56.38
2023-02-11T23:08:47.496Z,47.78
2023-02-11T23:11:19.454Z,55.35
2023-02-11T23:13:48.683Z,46.25
2023-02-11T23:16:18.202Z,44.97
2023-02-11T23:18:48.032Z,45.95
2023-02-11T23:21:18.854Z,51.25
2023-02-11T23:23:46.932Z,47.10
2023-02-11T23:26:19.186Z,47.30
2023-02-11T23:28:47.723Z,44.75
2023-02-11T23:31:21.114Z,42.17
2023-02-11T23:33:50.128Z,42.28
2023-02-11T23:36:19.501Z,56.67
2023-02-11T23:38:48.384Z,44.40
2023-02-11T23:41:18.382Z,49.55
2023-02-11T23:43:50.905Z,48.08
2023-02-11T23:46:19.717Z,57.22
2023-02-11T23:48:47.739Z,47.78
2023-02-11T23:51:16.036Z,67.25
2023-02-11T23:53:45.746Z,75.43
2023-02-11T23:56:19.298Z,74.10
2023-02-11T23:58:49.430Z,68.70
